メインページ
METAR-TAF:

METAR-TAF

空港 :

Tofino, ブリティッシュコロンビア州, カナダ

緯度: 49-05N, 経度: 125-46W, 海抜: 24m

現時点の気象観測

当レポートは1時間19分前の17:00(UTC)に作成
西/北西の風 14kt、最大21ktの突風を伴う
気温 12°C
湿度 94%
気圧 1015 hPa
視程: 12.9km
高度700ftの雲は散在している
高度2500ftの千切れ雲あり

METAR: CYAZ 171700Z 30014G21KT 8SM SCT007 BKN025 12/11 A2998 RMK CF3CU2 VIS HIER OFSHR SLP153

時間: 10:19 (18:19 UTC)

予報

当レポートは41分前の17:38(UTC)に作成
予報は17日の 18時(UTC)から 18日の 01時(UTC)まで有効
西/北西の風 12kt、最大22ktの突風を伴う
視程: 10km
高度700ftの雲は散在している
高度2500ftの千切れ雲あり
17日の 18時(UTC)から 17日の 20時(UTC)まで一時的に
視程: 8.0km
高度700ftの千切れ雲あり
高度2000ftの曇り
17日の 2000時(UTC)から
西/北西の風 10kt、最大20ktの突風を伴う
視程: 10km
高度1000ftの雲は散在している
高度3000ftの千切れ雲あり
17日の 20時(UTC)から 18日の 01時(UTC)まで一時的に
高度1000ftの千切れ雲あり
高度3000ftの千切れ雲あり

TAF: CYAZ 171738Z 1718/1801 29012G22KT P6SM SCT007 BKN025 TEMPO 1718/1720 5SM BR BKN007 OVC020 FM172000 29010G20KT P6SM SCT010 BKN030 TEMPO 1720/1801 BKN010 BKN030 RMK NXT FCST WILL BE ISSUED AT 181645Z

4,000以上の空港の気象観測と天気予報(METAR報とTAF報)

利用可能な観測所は地図上に黄色い丸と赤い丸で示す。

丸の上にカーソルを重ねると観測所名を参照できる。

次にクリックすると気象観測と天気予報を参照できる。

マップの切り替え:黒色「×」印の緑ボタンをクリックして拡大、「-」印の緑ボタンをクリックして縮小、緑色の三角印をクリックして隣りの地図に切り替え


METAR-TAF: